Time;durP1;ratioP1;P1;durP2;ratioP2;P2;SDS_P1;SDS_P2;PMS_P1;PMS_P2;Temp;Humidity;BMP_temperature;BMP_pressure;BME280_temperature;BME280_humidity;BME280_pressure;Samples;Min_cycle;Max_cycle;Signal;HPM_P1;HPM_P2
2021/04/30 00:00:38;;;;;;;22.17;13.75;;;;;;;10.16;81.50;100240.97;1666554;84;21871;-80
2021/04/30 00:03:44;;;;;;;19.37;13.70;;;;;;;10.07;81.87;100235.66;1665373;85;21357;-80
2021/04/30 00:06:50;;;;;;;28.35;15.32;;;;;;;9.96;82.68;100231.43;1683117;85;21301;-80
2021/04/30 00:09:57;;;;;;;27.85;15.13;;;;;;;9.89;83.90;100238.11;1682951;85;21289;-81
2021/04/30 00:13:04;;;;;;;23.25;16.27;;;;;;;9.84;84.90;100235.57;1665142;85;21322;-80
2021/04/30 00:16:13;;;;;;;20.10;14.50;;;;;;;9.82;85.71;100227.53;1683888;84;21780;-81
2021/04/30 00:19:18;;;;;;;22.58;14.68;;;;;;;9.84;86.18;100226.02;1682991;85;21827;-81
2021/04/30 00:22:24;;;;;;;22.55;15.30;;;;;;;9.84;86.51;100232.32;1682918;85;21328;-81
2021/04/30 00:25:30;;;;;;;30.35;15.40;;;;;;;9.86;86.62;100228.89;1682811;85;21182;-81
2021/04/30 00:28:37;;;;;;;24.12;14.75;;;;;;;9.84;86.43;100224.64;1682762;85;21336;-81
2021/04/30 00:31:44;;;;;;;26.02;14.35;;;;;;;9.81;86.34;100229.92;1682910;84;21217;-80
2021/04/30 00:34:50;;;;;;;24.30;14.38;;;;;;;9.78;86.53;100223.44;1683831;85;21313;-81
2021/04/30 00:37:55;;;;;;;18.98;12.35;;;;;;;9.73;86.53;100217.64;1682881;85;21332;-80
2021/04/30 00:41:02;;;;;;;25.17;14.00;;;;;;;9.68;86.63;100217.31;1683107;85;21294;-80
2021/04/30 00:44:13;;;;;;;20.65;13.78;;;;;;;9.62;86.71;100213.39;1673465;84;21842;-81
2021/04/30 00:47:43;;;;;;;23.55;15.53;;;;;;;9.61;86.90;100222.63;1697730;83;21189;-81
2021/04/30 00:50:49;;;;;;;26.73;16.17;;;;;;;9.61;86.96;100221.77;1695890;84;21299;-81
2021/04/30 00:53:54;;;;;;;29.95;18.30;;;;;;;9.60;86.86;100226.90;1697821;84;21220;-81
2021/04/30 00:57:01;;;;;;;36.95;19.10;;;;;;;9.58;86.75;100212.55;1673796;84;21170;-81
2021/04/30 01:00:07;;;;;;;39.18;20.90;;;;;;;9.56;86.75;100220.92;1697890;84;21301;-80
2021/04/30 01:03:14;;;;;;;51.73;20.37;;;;;;;9.55;86.69;100213.77;1677747;84;21294;-81
2021/04/30 01:06:19;;;;;;;31.80;18.50;;;;;;;9.54;86.62;100216.64;1673620;84;21285;-80
2021/04/30 01:09:25;;;;;;;41.05;18.55;;;;;;;9.53;86.60;100224.50;1697858;84;21683;-80
2021/04/30 01:12:30;;;;;;;33.40;17.62;;;;;;;9.51;86.53;100222.47;1697687;84;21221;-80
2021/04/30 01:15:36;;;;;;;34.27;18.60;;;;;;;9.47;86.51;100211.03;1697741;84;21770;-80
2021/04/30 01:18:54;;;;;;;33.85;18.52;;;;;;;9.43;86.58;100206.93;1678075;84;21803;-80
2021/04/30 01:22:02;;;;;;;29.35;17.70;;;;;;;9.40;86.70;100208.11;1697794;84;21291;-80
2021/04/30 01:25:08;;;;;;;35.80;17.70;;;;;;;9.38;86.77;100206.08;1697890;84;21811;-80
2021/04/30 01:28:14;;;;;;;34.35;19.40;;;;;;;9.33;86.88;100203.02;1697834;84;21320;-80
2021/04/30 01:31:19;;;;;;;31.85;18.57;;;;;;;9.27;86.99;100207.80;1697896;84;21336;-80
2021/04/30 01:34:25;;;;;;;32.28;17.00;;;;;;;9.23;87.22;100203.70;1678160;84;21292;-80
2021/04/30 01:37:32;;;;;;;30.25;18.07;;;;;;;9.19;87.32;100203.17;1697652;84;21225;-80
2021/04/30 01:40:41;;;;;;;27.42;16.02;;;;;;;9.16;87.39;100202.66;1697733;84;21323;-81
2021/04/30 01:43:48;;;;;;;28.92;16.48;;;;;;;9.16;87.42;100199.92;1697616;84;21245;-80
2021/04/30 01:46:54;;;;;;;27.45;16.42;;;;;;;9.15;87.30;100196.86;1698292;84;21308;-80
2021/04/30 01:50:00;;;;;;;24.02;15.93;;;;;;;9.16;87.41;100191.74;1698471;84;21838;-80
2021/04/30 01:53:05;;;;;;;32.28;17.45;;;;;;;9.17;87.46;100196.17;1698301;84;21316;-80
2021/04/30 01:56:18;;;;;;;25.30;15.55;;;;;;;9.19;87.40;100191.41;1650287;86;21857;-80
2021/04/30 01:59:24;;;;;;;26.07;15.70;;;;;;;9.21;87.22;100203.00;1698333;84;21181;-80
2021/04/30 02:02:30;;;;;;;22.75;13.13;;;;;;;9.22;86.99;100199.23;1698304;83;21854;-80
2021/04/30 02:05:38;;;;;;;35.00;15.00;;;;;;;9.21;86.81;100198.39;1698463;84;21308;-80
2021/04/30 02:08:43;;;;;;;29.12;15.70;;;;;;;9.23;86.60;100205.06;1678564;84;21328;-81
2021/04/30 02:11:49;;;;;;;23.30;16.20;;;;;;;9.25;86.38;100204.88;1698373;84;21328;-81
2021/04/30 02:14:54;;;;;;;21.75;14.50;;;;;;;9.26;86.15;100200.61;1698560;84;21894;-81
2021/04/30 02:18:01;;;;;;;23.30;14.50;;;;;;;9.26;85.94;100204.70;1675871;83;21193;-81
2021/04/30 02:21:06;;;;;;;21.17;13.72;;;;;;;9.27;85.75;100200.98;1698455;84;21926;-81
2021/04/30 02:24:14;;;;;;;24.80;14.70;;;;;;;9.25;85.57;100201.64;1679960;84;21367;-81
2021/04/30 02:27:20;;;;;;;20.60;14.07;;;;;;;9.26;85.16;100203.34;1698297;84;21359;-80
2021/04/30 02:30:25;;;;;;;20.05;13.68;;;;;;;9.28;84.66;100204.55;1698486;84;21225;-80
2021/04/30 02:33:31;;;;;;;20.68;12.68;;;;;;;9.28;84.14;100210.86;1698328;83;21237;-80
2021/04/30 02:36:37;;;;;;;18.73;12.25;;;;;;;9.29;83.73;100213.08;1675838;84;21348;-80
2021/04/30 02:39:43;;;;;;;24.82;11.80;;;;;;;9.33;83.35;100205.74;1698450;84;21296;-80
2021/04/30 02:42:48;;;;;;;16.97;12.18;;;;;;;9.41;82.84;100202.14;1698368;84;21228;-80
2021/04/30 02:45:53;;;;;;;17.05;12.23;;;;;;;9.52;82.16;100199.59;1690329;83;21251;-80
2021/04/30 02:49:03;;;;;;;18.17;12.25;;;;;;;9.62;81.54;100198.38;1679009;84;21233;-80
2021/04/30 02:52:08;;;;;;;16.23;11.25;;;;;;;9.71;80.87;100193.24;1679120;85;21316;-80
2021/04/30 02:55:15;;;;;;;21.23;12.13;;;;;;;9.79;80.37;100195.63;1679171;85;21297;-80
2021/04/30 02:58:21;;;;;;;19.62;11.28;;;;;;;9.83;79.93;100199.70;1679096;85;21315;-80
2021/04/30 03:01:26;;;;;;;20.50;11.88;;;;;;;9.89;79.51;100199.02;1678950;85;21166;-80
2021/04/30 03:04:33;;;;;;;17.20;11.90;;;;;;;9.93;79.17;100205.33;1679091;84;21376;-80
2021/04/30 03:07:39;;;;;;;18.12;10.72;;;;;;;9.96;78.83;100200.86;1658192;85;21317;-80
2021/04/30 03:10:44;;;;;;;16.10;10.95;;;;;;;10.01;78.48;100204.95;1679804;85;21301;-80
2021/04/30 03:13:51;;;;;;;21.10;13.20;;;;;;;10.00;78.26;100198.63;1679088;85;21255;-80
2021/04/30 03:16:58;;;;;;;18.90;11.00;;;;;;;9.98;77.99;100197.45;1679139;85;21253;-80
2021/04/30 03:20:04;;;;;;;22.17;11.97;;;;;;;9.97;77.76;100201.22;1679116;84;21305;-80
2021/04/30 03:23:11;;;;;;;19.30;12.20;;;;;;;9.97;77.55;100198.48;1680030;85;21867;-80
2021/04/30 03:26:18;;;;;;;15.58;12.05;;;;;;;9.96;77.38;100199.48;1678924;85;21296;-80
2021/04/30 03:29:24;;;;;;;23.38;12.43;;;;;;;9.97;77.32;100198.48;1679113;85;21297;-80
2021/04/30 03:32:24;;;;;;;20.35;13.00;;;;;;;9.96;77.19;100202.22;1679051;85;21222;-80
2021/04/30 03:35:29;;;;;;;19.85;12.18;;;;;;;9.90;77.10;100197.98;1679206;84;21328;-80
2021/04/30 03:38:35;;;;;;;15.40;11.65;;;;;;;9.84;77.17;100202.27;1678301;85;21190;-80
2021/04/30 03:41:40;;;;;;;19.60;12.35;;;;;;;9.75;77.41;100210.14;1679885;85;21778;-80
2021/04/30 03:44:47;;;;;;;21.73;14.25;;;;;;;9.70;77.63;100213.39;1679027;85;21198;-81
2021/04/30 03:47:53;;;;;;;16.52;11.70;;;;;;;9.62;78.06;100215.28;1693238;84;21319;-80
2021/04/30 03:51:00;;;;;;;22.27;13.62;;;;;;;9.60;78.50;100218.19;1673713;84;21209;-81
2021/04/30 03:54:07;;;;;;;21.87;15.18;;;;;;;9.66;78.78;100215.28;1697753;84;21229;-80
2021/04/30 03:57:11;;;;;;;21.70;14.50;;;;;;;9.78;78.80;100217.97;1697776;84;21319;-81
2021/04/30 04:00:19;;;;;;;27.40;16.82;;;;;;;9.94;78.67;100218.47;1697906;84;21288;-81
2021/04/30 04:03:24;;;;;;;29.32;16.48;;;;;;;10.10;78.29;100218.41;1697845;84;21874;-81
2021/04/30 04:06:30;;;;;;;24.90;15.43;;;;;;;10.28;78.06;100220.10;1697608;83;21347;-81
2021/04/30 04:09:35;;;;;;;31.95;16.82;;;;;;;10.43;77.69;100220.54;1697833;84;21216;-81
2021/04/30 04:12:42;;;;;;;31.30;15.70;;;;;;;10.58;77.33;100213.80;1697883;84;21858;-81
2021/04/30 04:15:47;;;;;;;27.82;15.58;;;;;;;10.76;77.13;100214.91;1697959;84;21885;-81
2021/04/30 04:18:53;;;;;;;30.70;16.67;;;;;;;10.88;76.39;100210.74;1696820;84;21319;-81
2021/04/30 04:21:59;;;;;;;36.28;17.55;;;;;;;10.90;75.65;100217.39;1697858;84;21181;-81
2021/04/30 04:25:07;;;;;;;28.10;16.32;;;;;;;10.90;75.52;100218.23;1697666;84;21304;-81
2021/04/30 04:28:15;;;;;;;38.45;16.32;;;;;;;11.04;75.49;100221.23;1697432;84;21253;-81
2021/04/30 04:31:20;;;;;;;27.58;16.00;;;;;;;11.21;75.40;100221.47;1697840;84;21220;-81
2021/04/30 04:34:27;;;;;;;33.15;15.65;;;;;;;11.37;74.87;100220.48;1697413;84;21304;-81
2021/04/30 04:37:33;;;;;;;32.90;17.12;;;;;;;11.38;74.81;100224.91;1697492;84;21633;-81
2021/04/30 04:40:38;;;;;;;35.17;17.60;;;;;;;11.36;74.86;100216.89;1697854;84;21327;-81
2021/04/30 04:43:43;;;;;;;46.77;19.23;;;;;;;11.43;75.04;100222.47;1697442;84;21347;-81
2021/04/30 04:46:49;;;;;;;37.60;19.82;;;;;;;11.53;74.60;100221.73;1697652;84;21296;-81
2021/04/30 04:49:55;;;;;;;53.48;26.37;;;;;;;11.63;74.89;100220.94;1698383;84;21296;-81
2021/04/30 04:53:00;;;;;;;44.60;23.73;;;;;;;11.73;74.40;100231.64;1698322;84;21650;-81
2021/04/30 04:56:05;;;;;;;48.00;24.72;;;;;;;11.86;74.57;100226.41;1697984;84;21841;-81
2021/04/30 04:59:11;;;;;;;67.47;31.60;;;;;;;12.06;74.20;100225.34;1696654;84;21216;-81
2021/04/30 05:02:17;;;;;;;57.33;27.60;;;;;;;12.22;73.16;100226.52;1697892;84;21223;-81
2021/04/30 05:05:22;;;;;;;53.45;27.50;;;;;;;12.34;72.41;100225.53;1700018;82;21180;-81
2021/04/30 05:08:29;;;;;;;57.43;30.92;;;;;;;12.45;72.00;100219.55;1674116;83;21275;-81
2021/04/30 05:11:35;;;;;;;66.47;33.28;;;;;;;12.57;71.84;100220.45;1721683;82;21629;-82
2021/04/30 05:14:42;;;;;;;74.75;34.18;;;;;;;12.71;71.50;100219.58;1725103;83;21291;-83
2021/04/30 05:17:47;;;;;;;67.58;33.88;;;;;;;12.84;71.68;100213.37;1722057;83;21318;-83
2021/04/30 05:20:54;;;;;;;77.82;35.75;;;;;;;13.00;70.73;100214.53;1722566;83;21696;-83
2021/04/30 05:24:01;;;;;;;71.75;34.43;;;;;;;13.21;69.54;100221.92;1723829;81;21287;-83
2021/04/30 05:27:09;;;;;;;60.23;33.10;;;;;;;13.35;68.70;100218.81;1700851;82;21323;-82
2021/04/30 05:30:17;;;;;;;73.78;36.35;;;;;;;13.50;68.44;100220.47;1722678;82;21857;-82
2021/04/30 05:33:23;;;;;;;88.75;40.33;;;;;;;13.63;68.86;100216.95;1721195;82;21215;-82
2021/04/30 05:36:29;;;;;;;87.97;38.28;;;;;;;13.71;68.39;100213.23;1724067;82;21774;-82
2021/04/30 05:39:34;;;;;;;86.72;38.33;;;;;;;13.85;68.45;100214.19;1728835;81;21302;-82
2021/04/30 05:42:41;;;;;;;91.65;41.25;;;;;;;14.00;68.69;100203.39;1725012;81;21232;-83
2021/04/30 05:45:47;;;;;;;82.10;37.42;;;;;;;14.17;68.09;100203.09;1721105;81;21746;-83
2021/04/30 05:48:53;;;;;;;65.20;31.68;;;;;;;14.32;67.30;100209.31;1717725;80;21199;-82
2021/04/30 05:52:00;;;;;;;97.80;41.70;;;;;;;14.45;66.02;100212.14;1675927;85;21280;-82
2021/04/30 05:55:06;;;;;;;72.32;35.15;;;;;;;14.62;65.90;100210.44;1677805;85;21181;-82
2021/04/30 05:58:13;;;;;;;73.33;35.40;;;;;;;14.78;66.02;100207.34;1680301;84;21311;-82
2021/04/30 06:01:20;;;;;;;72.75;34.85;;;;;;;14.97;65.56;100209.30;1674688;84;21940;-83
2021/04/30 06:04:26;;;;;;;90.97;41.92;;;;;;;15.18;65.52;100218.45;1678006;85;21186;-82
2021/04/30 06:07:33;;;;;;;80.60;38.65;;;;;;;15.34;64.32;100209.81;1676285;85;21285;-82
2021/04/30 06:10:39;;;;;;;82.55;37.70;;;;;;;15.45;64.10;100203.67;1687029;83;21800;-82
2021/04/30 06:13:47;;;;;;;98.82;42.65;;;;;;;15.54;63.39;100203.78;1702385;83;21932;-83
2021/04/30 06:16:53;;;;;;;60.20;28.07;;;;;;;15.59;63.53;100197.10;1697401;83;21301;-84
2021/04/30 06:20:00;;;;;;;66.45;29.35;;;;;;;15.68;63.00;100191.42;1648606;87;21163;-82
2021/04/30 06:23:06;;;;;;;66.87;32.98;;;;;;;15.83;63.18;100194.26;1697791;84;21288;-82
2021/04/30 06:26:12;;;;;;;56.10;26.75;;;;;;;15.96;61.24;100194.78;1682099;84;21237;-83
2021/04/30 06:29:17;;;;;;;63.63;27.62;;;;;;;16.06;60.94;100200.70;1684604;84;21306;-82
2021/04/30 06:32:24;;;;;;;42.13;21.37;;;;;;;16.16;61.56;100203.55;1667993;84;21299;-83
2021/04/30 06:35:30;;;;;;;50.00;23.07;;;;;;;16.26;60.43;100198.44;1681168;84;21316;-84
2021/04/30 06:38:36;;;;;;;39.83;21.05;;;;;;;16.38;61.54;100202.77;1656261;85;21187;-83
2021/04/30 06:41:42;;;;;;;43.70;19.02;;;;;;;16.53;60.49;100208.88;1656258;85;21299;-83
2021/04/30 06:44:48;;;;;;;33.78;17.55;;;;;;;16.69;59.94;100215.81;1657961;85;21801;-82
2021/04/30 06:47:55;;;;;;;44.45;21.50;;;;;;;16.82;58.99;100212.49;1656186;85;21337;-82
2021/04/30 06:51:01;;;;;;;38.63;18.40;;;;;;;16.92;58.38;100210.64;1682281;83;21775;-83
2021/04/30 06:54:07;;;;;;;25.65;11.68;;;;;;;17.01;59.20;100213.46;1701934;82;21380;-83
2021/04/30 06:57:16;;;;;;;23.65;10.08;;;;;;;17.09;56.17;100212.37;1700364;82;21184;-83
2021/04/30 07:00:21;;;;;;;19.40;11.68;;;;;;;17.13;56.58;100214.16;1677917;84;21290;-83
2021/04/30 07:03:29;;;;;;;18.17;10.00;;;;;;;17.17;55.56;100210.70;1697661;82;21831;-83
2021/04/30 07:06:35;;;;;;;17.67;9.35;;;;;;;17.20;57.22;100219.10;1697331;84;21279;-83
2021/04/30 07:09:41;;;;;;;23.70;9.65;;;;;;;17.27;55.58;100212.47;1704378;82;21302;-86
2021/04/30 07:12:47;;;;;;;14.95;7.25;;;;;;;17.29;55.51;100203.41;1700445;84;21201;-86
2021/04/30 07:15:53;;;;;;;11.78;6.80;;;;;;;17.37;57.15;100213.36;1701933;82;21264;-86
2021/04/30 07:18:59;;;;;;;17.37;6.50;;;;;;;17.45;56.93;100211.69;1702138;82;21600;-85
2021/04/30 07:22:09;;;;;;;14.30;7.22;;;;;;;17.63;57.09;100209.54;1703284;82;21284;-86
2021/04/30 07:25:13;;;;;;;32.63;13.98;;;;;;;17.82;56.53;100213.24;1703336;82;21161;-86
2021/04/30 07:28:22;;;;;;;13.05;8.30;;;;;;;17.88;54.59;100210.44;1696027;84;21310;-86
2021/04/30 07:31:28;;;;;;;19.05;8.35;;;;;;;17.97;55.55;100205.44;1702701;84;21687;-86
2021/04/30 07:34:37;;;;;;;19.87;10.10;;;;;;;18.04;55.32;100195.17;1699288;82;21185;-86
2021/04/30 07:37:43;;;;;;;27.62;12.43;;;;;;;18.10;55.63;100201.70;1700085;82;21745;-86
2021/04/30 07:40:49;;;;;;;26.42;10.68;;;;;;;18.11;54.20;100202.00;1699651;84;21752;-85
2021/04/30 07:43:56;;;;;;;28.23;9.85;;;;;;;18.13;55.17;100197.11;1690073;82;22023;-85
2021/04/30 07:47:01;;;;;;;14.25;8.53;;;;;;;18.21;53.99;100189.02;1695554;82;21298;-86
2021/04/30 07:50:08;;;;;;;26.68;11.70;;;;;;;18.30;54.82;100190.41;1695206;82;21283;-86
2021/04/30 07:53:13;;;;;;;22.77;12.53;;;;;;;18.43;54.91;100181.97;1722286;81;21801;-85
2021/04/30 07:56:18;;;;;;;22.90;12.75;;;;;;;18.54;54.13;100182.59;1703670;83;21286;-85
2021/04/30 07:59:25;;;;;;;41.08;15.58;;;;;;;18.65;53.97;100185.95;1700299;83;21346;-85
2021/04/30 08:02:31;;;;;;;27.05;14.10;;;;;;;18.71;54.11;100188.91;1720196;81;21314;-85
2021/04/30 08:05:36;;;;;;;22.17;12.18;;;;;;;18.72;53.33;100180.36;1699989;83;21271;-86
2021/04/30 08:08:43;;;;;;;27.35;13.10;;;;;;;18.76;53.32;100177.42;1714878;83;21260;-85
2021/04/30 08:11:48;;;;;;;29.50;14.90;;;;;;;18.83;53.81;100178.75;1702198;83;21302;-86
2021/04/30 08:14:55;;;;;;;25.23;13.03;;;;;;;18.90;52.12;100164.25;1722624;81;22189;-86
2021/04/30 08:17:54;;;;;;;25.52;12.73;;;;;;;18.96;52.15;100167.48;1719346;81;21191;-86
2021/04/30 08:21:00;;;;;;;33.02;15.60;;;;;;;19.03;51.69;100175.15;1724833;81;21654;-86
2021/04/30 08:24:05;;;;;;;31.20;14.90;;;;;;;19.09;50.34;100170.58;1697523;83;21286;-86
2021/04/30 08:27:11;;;;;;;30.90;13.53;;;;;;;19.00;50.78;100161.75;1720261;81;21369;-86
2021/04/30 08:30:17;;;;;;;26.35;13.28;;;;;;;18.88;51.70;100156.72;1720219;82;21832;-86
2021/04/30 08:33:26;;;;;;;29.67;14.98;;;;;;;18.88;52.44;100151.17;1698590;83;21809;-86
2021/04/30 08:36:33;;;;;;;30.80;13.00;;;;;;;18.89;51.85;100145.94;1719188;83;21184;-85
2021/04/30 08:39:39;;;;;;;28.05;12.13;;;;;;;18.84;50.33;100147.18;1729587;81;21204;-86
2021/04/30 08:42:48;;;;;;;27.35;13.15;;;;;;;18.69;50.64;100135.67;1725283;81;21305;-86
2021/04/30 08:45:54;;;;;;;29.05;14.70;;;;;;;18.62;50.13;100137.94;1689618;83;21286;-85
2021/04/30 08:49:00;;;;;;;18.55;9.38;;;;;;;18.53;50.75;100131.02;1720363;83;21310;-86
2021/04/30 08:52:05;;;;;;;32.48;14.03;;;;;;;18.57;53.14;100125.88;1720653;81;21623;-87
2021/04/30 08:55:17;;;;;;;35.15;15.23;;;;;;;18.56;51.28;100126.95;1717404;83;21184;-87
2021/04/30 08:58:26;;;;;;;25.25;11.80;;;;;;;18.45;51.17;100123.06;1716411;83;21896;-87
2021/04/30 09:01:31;;;;;;;23.70;11.38;;;;;;;18.48;51.53;100108.73;1721345;83;21172;-86
2021/04/30 09:04:41;;;;;;;28.15;12.23;;;;;;;18.59;50.33;100114.88;1717460;83;21294;-86
2021/04/30 09:07:49;;;;;;;;;;;;;;;18.64;50.79;100110.87;1668543;85;21779;-86
2021/04/30 09:10:56;;;;;;;26.57;12.37;;;;;;;18.76;50.22;100103.17;1661207;86;20304;-86
2021/04/30 09:14:22;;;;;;;22.60;11.15;;;;;;;18.84;50.39;100103.69;1686976;84;21284;-86
2021/04/30 09:17:30;;;;;;;13.75;7.58;;;;;;;18.92;50.61;100101.67;1661497;86;21841;-87
2021/04/30 09:20:47;;;;;;;10.72;5.53;;;;;;;19.04;51.47;100100.61;1697295;83;21800;-87
2021/04/30 09:23:55;;;;;;;29.75;12.37;;;;;;;19.17;51.86;100097.34;1697935;83;21343;-86
2021/04/30 09:27:03;;;;;;;21.23;10.13;;;;;;;19.21;48.54;100097.17;1708979;83;21331;-87
2021/04/30 09:30:29;;;;;;;21.25;12.15;;;;;;;19.08;47.60;100089.90;1692883;83;21172;-86
2021/04/30 09:33:35;;;;;;;18.70;9.58;;;;;;;19.03;48.66;100092.54;1685161;84;21864;-86
2021/04/30 09:37:04;;;;;;;10.18;5.60;;;;;;;18.99;48.20;100083.00;1694035;83;21743;-86
2021/04/30 09:40:10;;;;;;;11.65;5.90;;;;;;;19.07;50.46;100076.58;1660842;86;21373;-86
2021/04/30 09:43:18;;;;;;;13.00;6.17;;;;;;;19.26;49.59;100079.27;1661766;86;21328;-86
2021/04/30 09:46:38;;;;;;;9.33;5.08;;;;;;;19.32;49.82;100078.31;1685380;83;21291;-86
2021/04/30 09:49:45;;;;;;;7.53;3.85;;;;;;;19.34;48.76;100081.70;1691060;85;21299;-86
2021/04/30 09:53:00;;;;;;;16.35;4.47;;;;;;;19.41;50.57;100088.80;1702790;83;21280;-87
2021/04/30 09:56:05;;;;;;;5.10;3.37;;;;;;;19.60;49.93;100085.41;1693923;84;21310;-86
2021/04/30 09:59:10;;;;;;;10.48;3.35;;;;;;;19.77;48.11;100078.61;1604134;87;21344;-85
2021/04/30 10:02:24;;;;;;;8.90;3.70;;;;;;;19.68;47.52;100081.98;1682396;84;22216;-85
2021/04/30 10:05:31;;;;;;;8.68;4.03;;;;;;;19.51;47.74;100074.34;1688329;84;21829;-85
2021/04/30 10:08:37;;;;;;;6.55;3.60;;;;;;;19.43;47.94;100075.23;1690533;84;21371;-86
2021/04/30 10:11:43;;;;;;;10.08;3.50;;;;;;;19.36;48.89;100073.97;1685227;85;21256;-86
2021/04/30 10:14:50;;;;;;;8.10;3.67;;;;;;;19.32;48.12;100069.44;1679158;84;21274;-85
2021/04/30 10:17:58;;;;;;;7.37;4.33;;;;;;;19.34;49.85;100072.84;1695449;84;21928;-86
2021/04/30 10:21:04;;;;;;;5.97;3.67;;;;;;;19.32;49.17;100068.60;1667283;86;21342;-86
2021/04/30 10:24:09;;;;;;;11.60;3.85;;;;;;;19.19;48.46;100065.50;1683027;84;21195;-85
2021/04/30 10:27:18;;;;;;;5.65;3.67;;;;;;;19.15;48.98;100061.00;1639473;87;21854;-85
2021/04/30 10:30:48;;;;;;;6.60;3.52;;;;;;;19.20;50.49;100067.22;1694837;84;21665;-86
2021/04/30 10:34:04;;;;;;;7.33;3.50;;;;;;;19.35;51.17;100063.42;1694925;84;21301;-85
2021/04/30 10:37:10;;;;;;;6.22;3.22;;;;;;;19.56;49.60;100057.81;1694867;84;21330;-86
2021/04/30 10:40:17;;;;;;;19.98;3.50;;;;;;;19.63;49.63;100055.81;1694618;84;21320;-85
2021/04/30 10:43:28;;;;;;;6.33;2.72;;;;;;;19.69;51.02;100058.70;1619613;87;21269;-85
2021/04/30 10:46:34;;;;;;;7.42;3.10;;;;;;;19.75;49.91;100050.78;1657540;84;22214;-85
2021/04/30 10:49:40;;;;;;;6.45;3.12;;;;;;;19.69;49.89;100051.77;1668084;86;21656;-85
2021/04/30 10:52:46;;;;;;;8.75;3.67;;;;;;;19.65;49.87;100048.62;1678808;84;21291;-86
2021/04/30 10:55:52;;;;;;;6.25;2.80;;;;;;;19.72;49.63;100045.74;1713610;83;21342;-86
2021/04/30 10:58:59;;;;;;;11.30;2.92;;;;;;;19.82;49.50;100044.58;1696682;84;21282;-86
2021/04/30 11:02:05;;;;;;;7.60;2.70;;;;;;;19.93;49.94;100041.47;1697193;84;21396;-86
2021/04/30 11:05:17;;;;;;;11.00;3.25;;;;;;;20.07;50.48;100035.95;1697686;84;21743;-86
2021/04/30 11:08:22;;;;;;;9.40;3.15;;;;;;;20.24;51.06;100034.65;1697367;84;21240;-86
2021/04/30 11:11:45;;;;;;;7.80;2.60;;;;;;;20.43;50.34;100020.87;1697501;83;21838;-86
2021/04/30 11:15:08;;;;;;;9.93;3.22;;;;;;;20.59;50.19;100018.70;1697298;84;21301;-85
2021/04/30 11:18:14;;;;;;;7.47;2.52;;;;;;;20.69;49.11;100022.20;1714381;83;21276;-86
2021/04/30 11:21:20;;;;;;;9.85;2.92;;;;;;;20.73;48.48;100018.39;1697575;83;21302;-85
2021/04/30 11:24:42;;;;;;;10.23;3.72;;;;;;;20.70;49.11;100016.10;1723180;83;21750;-86
2021/04/30 11:27:48;;;;;;;10.13;2.77;;;;;;;20.67;49.89;100012.74;1725997;83;21351;-86
2021/04/30 11:31:14;;;;;;;5.17;2.52;;;;;;;20.67;49.55;100013.30;1679120;83;21340;-85
2021/04/30 11:34:23;;;;;;;9.05;3.00;;;;;;;20.64;49.74;100006.28;1726940;83;21239;-86
2021/04/30 11:37:33;;;;;;;4.95;2.60;;;;;;;20.72;50.19;100005.59;1721596;83;21730;-85
2021/04/30 11:40:39;;;;;;;4.25;2.87;;;;;;;20.78;49.88;99999.02;1726777;83;21306;-86
2021/04/30 11:43:47;;;;;;;8.60;2.80;;;;;;;20.80;50.23;99988.52;1725845;83;21508;-86
2021/04/30 11:47:10;;;;;;;6.00;2.92;;;;;;;20.82;49.57;99999.66;1725874;83;21162;-86
2021/04/30 11:50:17;;;;;;;4.80;2.42;;;;;;;20.84;49.84;99994.72;1726702;81;21170;-86
2021/04/30 11:53:21;;;;;;;6.97;2.62;;;;;;;20.87;48.72;99991.96;1726077;83;21803;-86
2021/04/30 11:56:27;;;;;;;5.70;2.17;;;;;;;20.86;47.79;99986.11;1724319;82;21332;-86
2021/04/30 11:59:33;;;;;;;8.90;2.75;;;;;;;20.78;47.04;99985.13;1726429;83;21382;-86
2021/04/30 12:02:43;;;;;;;6.65;2.30;;;;;;;20.67;46.57;99979.95;1726804;83;21324;-86
2021/04/30 12:05:50;;;;;;;6.00;2.20;;;;;;;20.58;48.12;99964.78;1726818;83;21332;-86
2021/04/30 12:08:59;;;;;;;7.58;2.25;;;;;;;20.52;48.13;99963.84;1726840;83;21198;-86
2021/04/30 12:12:19;;;;;;;12.40;2.98;;;;;;;20.50;48.25;99964.63;1726520;83;21759;-85
2021/04/30 12:15:40;;;;;;;8.73;3.70;;;;;;;20.52;48.51;99963.01;1726492;83;21292;-86
2021/04/30 12:18:47;;;;;;;10.25;3.25;;;;;;;20.53;48.13;99965.52;1726538;83;21856;-85
2021/04/30 12:21:54;;;;;;;10.58;3.75;;;;;;;20.48;47.05;99954.32;1726828;83;21290;-85
2021/04/30 12:25:00;;;;;;;7.35;2.92;;;;;;;20.38;47.37;99950.78;1726880;83;21791;-85
2021/04/30 12:28:36;;;;;;;11.38;3.80;;;;;;;20.27;48.29;99936.39;1726275;83;21194;-85
2021/04/30 12:31:42;;;;;;;11.15;4.08;;;;;;;20.22;48.77;99936.30;1726782;83;21292;-84
2021/04/30 12:34:50;;;;;;;14.78;4.22;;;;;;;20.21;48.48;99934.62;1726256;83;21297;-84
2021/04/30 12:37:58;;;;;;;8.80;3.62;;;;;;;20.15;48.03;99930.91;1725628;83;21323;-85
2021/04/30 12:41:05;;;;;;;12.28;3.80;;;;;;;20.12;49.31;99928.61;1743580;82;21292;-85
2021/04/30 12:44:13;;;;;;;9.80;3.80;;;;;;;20.15;49.00;99929.52;1726107;83;21301;-85
2021/04/30 12:47:19;;;;;;;8.85;3.90;;;;;;;20.20;49.20;99925.16;1726813;83;21332;-85
2021/04/30 12:50:26;;;;;;;8.73;3.02;;;;;;;20.26;49.14;99926.92;1724685;82;21843;-85
2021/04/30 12:53:32;;;;;;;6.22;2.40;;;;;;;20.31;48.88;99920.08;1726648;83;21337;-85
2021/04/30 12:56:50;;;;;;;5.15;2.25;;;;;;;20.32;49.12;99918.43;1717821;82;21301;-85
2021/04/30 13:00:08;;;;;;;7.37;2.35;;;;;;;20.30;47.36;99917.01;1731175;82;21203;-86
2021/04/30 13:03:18;;;;;;;8.63;2.80;;;;;;;20.29;47.70;99911.17;1706869;84;21234;-86
2021/04/30 13:06:30;;;;;;;7.62;2.30;;;;;;;20.31;47.06;99907.58;1707226;84;21238;-82
2021/04/30 13:09:38;;;;;;;5.50;2.27;;;;;;;20.28;46.70;99911.72;1707249;84;22266;-82
2021/04/30 13:12:45;;;;;;;9.55;2.75;;;;;;;20.22;46.95;99909.91;1676080;84;21215;-82
2021/04/30 13:15:50;;;;;;;5.00;2.40;;;;;;;20.18;46.37;99911.50;1635338;86;21372;-81
2021/04/30 13:18:57;;;;;;;5.28;2.33;;;;;;;20.07;46.32;99903.53;1636154;87;21822;-82
2021/04/30 13:22:04;;;;;;;6.00;2.40;;;;;;;20.01;47.00;99900.38;1637069;87;21187;-82
2021/04/30 13:25:09;;;;;;;11.83;3.02;;;;;;;19.96;47.55;99905.83;1637081;87;21234;-82
2021/04/30 13:28:23;;;;;;;9.08;2.67;;;;;;;19.95;47.52;99906.92;1636960;87;21380;-82
2021/04/30 13:31:30;;;;;;;10.15;2.70;;;;;;;19.95;47.34;99898.59;1637262;87;21190;-82
2021/04/30 13:34:49;;;;;;;6.70;2.05;;;;;;;19.98;47.93;99900.02;1637151;87;21197;-82
2021/04/30 13:37:54;;;;;;;7.67;2.67;;;;;;;20.01;48.41;99898.98;1637108;87;21332;-82
2021/04/30 13:41:17;;;;;;;10.48;2.37;;;;;;;19.99;48.45;99895.59;1636625;86;21324;-82
2021/04/30 13:44:27;;;;;;;6.08;2.37;;;;;;;19.96;48.69;99894.72;1636446;87;21223;-82
2021/04/30 13:47:47;;;;;;;11.15;2.42;;;;;;;19.90;48.42;99888.23;1635871;87;21332;-81
2021/04/30 13:50:53;;;;;;;12.58;3.02;;;;;;;19.82;48.64;99890.56;1626308;87;21210;-82
2021/04/30 13:53:59;;;;;;;4.33;2.40;;;;;;;19.72;48.89;99885.65;1636512;87;21788;-82
2021/04/30 13:57:04;;;;;;;8.33;3.12;;;;;;;19.69;49.06;99891.68;1646140;84;21891;-82
2021/04/30 14:00:14;;;;;;;9.75;2.60;;;;;;;19.65;49.52;99885.77;1680859;85;21324;-82
2021/04/30 14:03:19;;;;;;;;;;;;;;;19.58;49.27;99876.73;1665167;85;21662;-82
2021/04/30 14:06:25;;;;;;;7.75;2.80;;;;;;;19.50;49.77;99881.27;1680992;85;20662;-82
2021/04/30 14:09:31;;;;;;;5.30;3.10;;;;;;;19.48;50.25;99882.07;1680469;84;21787;-82
2021/04/30 14:12:38;;;;;;;6.05;2.65;;;;;;;19.48;49.14;99880.69;1680386;84;21380;-82
2021/04/30 14:15:45;;;;;;;9.63;3.20;;;;;;;19.46;49.55;99880.07;1680339;85;21218;-82
2021/04/30 14:18:51;;;;;;;8.70;3.00;;;;;;;19.43;49.68;99875.00;1680042;85;21867;-82
2021/04/30 14:21:58;;;;;;;5.83;2.75;;;;;;;19.40;49.69;99876.35;1680136;85;21317;-82
2021/04/30 14:25:04;;;;;;;6.33;2.85;;;;;;;19.37;49.88;99871.28;1680726;85;21300;-82